createdAt,value
2023-03-10T00:02:38.459Z,0.30
2023-03-10T00:07:44.462Z,0.30
2023-03-10T00:12:49.640Z,0.30
2023-03-10T00:17:55.966Z,0.20
2023-03-10T00:23:01.179Z,0.20
2023-03-10T00:28:06.226Z,0.30
2023-03-10T00:33:11.411Z,0.20
2023-03-10T00:38:16.431Z,0.20
2023-03-10T00:43:22.028Z,0.00
2023-03-10T00:48:27.969Z,0.00
2023-03-10T00:53:35.256Z,0.10
2023-03-10T00:58:40.931Z,0.00
2023-03-10T01:03:47.194Z,0.10
2023-03-10T01:08:52.736Z,-0.10
2023-03-10T01:14:00.426Z,-0.10
2023-03-10T01:19:05.920Z,-0.20
2023-03-10T01:24:16.581Z,-0.10
2023-03-10T01:29:21.814Z,-0.10
2023-03-10T01:34:26.998Z,0.00
2023-03-10T01:39:32.253Z,0.00
2023-03-10T01:44:37.411Z,0.00
2023-03-10T01:49:45.606Z,-0.10
2023-03-10T02:00:27.117Z,0.00
2023-03-10T02:05:33.163Z,0.00
2023-03-10T02:10:39.731Z,0.00
2023-03-10T02:15:45.372Z,0.00
2023-03-10T02:20:53.535Z,0.00
2023-03-10T02:26:13.338Z,0.00
2023-03-10T02:31:19.702Z,-0.10
2023-03-10T02:36:25.943Z,-0.10
2023-03-10T02:41:37.223Z,0.00
2023-03-10T02:46:42.565Z,0.00
2023-03-10T02:51:48.813Z,0.00
2023-03-10T02:56:53.964Z,0.00
2023-03-10T03:01:59.021Z,-0.10
2023-03-10T03:07:04.114Z,0.00
2023-03-10T03:12:09.865Z,0.00
2023-03-10T03:17:14.933Z,0.00
2023-03-10T03:22:20.117Z,0.00
2023-03-10T03:27:25.247Z,0.00
2023-03-10T03:32:30.477Z,0.10
2023-03-10T03:37:35.566Z,0.00
2023-03-10T03:42:45.724Z,0.10
2023-03-10T03:47:52.716Z,0.10
2023-03-10T03:52:58.425Z,0.10
2023-03-10T03:58:03.506Z,0.10
2023-03-10T04:03:09.776Z,0.10
2023-03-10T04:08:16.015Z,0.10
2023-03-10T04:13:21.432Z,0.10
2023-03-10T04:18:26.597Z,0.10
2023-03-10T04:23:31.756Z,0.10
2023-03-10T04:28:36.857Z,0.20
2023-03-10T04:33:42.028Z,0.20
2023-03-10T04:38:48.036Z,0.20
2023-03-10T04:43:53.277Z,0.20
2023-03-10T04:48:58.975Z,0.10
2023-03-10T04:54:04.289Z,0.10
2023-03-10T04:59:09.476Z,0.20
2023-03-10T05:04:14.692Z,0.20
2023-03-10T05:09:20.105Z,0.20
2023-03-10T05:14:25.596Z,0.20
2023-03-10T05:19:30.709Z,0.20
2023-03-10T05:24:37.556Z,0.10
2023-03-10T05:29:42.713Z,0.20
2023-03-10T05:34:47.812Z,0.10
2023-03-10T05:39:52.910Z,0.20
2023-03-10T05:44:58.010Z,0.40
2023-03-10T05:50:04.849Z,0.40
2023-03-10T05:55:13.059Z,0.40
2023-03-10T06:00:19.278Z,0.40
2023-03-10T06:05:24.551Z,0.50
2023-03-10T06:10:29.731Z,0.50
2023-03-10T06:15:35.750Z,0.60
2023-03-10T06:20:41.381Z,0.60
2023-03-10T06:25:49.626Z,0.60
2023-03-10T06:31:00.597Z,0.60
2023-03-10T06:36:07.759Z,0.70
2023-03-10T06:41:19.158Z,0.70
2023-03-10T06:46:32.139Z,0.70
2023-03-10T06:51:40.552Z,0.70
2023-03-10T06:56:47.628Z,0.70
2023-03-10T07:01:55.208Z,0.80
2023-03-10T07:07:00.355Z,0.90
2023-03-10T07:12:08.686Z,1.00
2023-03-10T07:17:14.628Z,1.10
2023-03-10T07:22:19.768Z,1.10
2023-03-10T07:27:25.034Z,1.10
2023-03-10T07:32:30.331Z,1.20
2023-03-10T07:37:38.695Z,1.20
2023-03-10T07:42:44.962Z,1.10
2023-03-10T07:47:52.429Z,1.20
2023-03-10T07:52:57.828Z,1.10
2023-03-10T07:58:03.187Z,1.30
2023-03-10T08:03:08.580Z,1.20
2023-03-10T08:08:17.286Z,1.30
2023-03-10T08:13:22.660Z,1.30
2023-03-10T08:18:30.162Z,1.30
2023-03-10T08:23:36.833Z,1.20
2023-03-10T08:28:42.416Z,1.30
2023-03-10T08:33:50.030Z,1.30
2023-03-10T08:38:56.778Z,1.20
2023-03-10T08:44:02.927Z,1.30
2023-03-10T08:49:08.396Z,1.30
2023-03-10T08:54:16.780Z,1.40
2023-03-10T08:59:24.633Z,1.40
2023-03-10T09:04:29.861Z,1.50
2023-03-10T09:09:35.163Z,1.50
2023-03-10T09:14:40.535Z,1.50
2023-03-10T09:19:46.254Z,1.60
2023-03-10T09:24:51.571Z,1.60
2023-03-10T09:29:58.055Z,1.60
2023-03-10T09:35:03.938Z,1.60
2023-03-10T09:40:12.241Z,1.70
2023-03-10T09:45:23.479Z,1.60
2023-03-10T09:50:39.171Z,1.70
2023-03-10T09:55:48.556Z,1.80
2023-03-10T10:01:01.682Z,1.80
2023-03-10T10:06:07.906Z,1.90
2023-03-10T10:11:17.992Z,2.00
2023-03-10T10:16:34.898Z,2.00
2023-03-10T10:21:48.498Z,2.10
2023-03-10T10:26:53.873Z,2.10
2023-03-10T10:32:11.250Z,2.10
2023-03-10T10:37:25.146Z,2.10
2023-03-10T10:42:33.063Z,2.20
2023-03-10T10:47:52.785Z,2.20
2023-03-10T10:53:17.697Z,2.30
2023-03-10T10:58:28.760Z,2.40
2023-03-10T11:03:37.574Z,2.30
2023-03-10T11:08:44.599Z,2.30
2023-03-10T11:14:14.445Z,2.30
2023-03-10T11:19:32.136Z,2.30
2023-03-10T11:24:43.699Z,2.20
2023-03-10T11:30:08.397Z,2.20
2023-03-10T11:35:19.563Z,2.30
2023-03-10T11:40:27.877Z,2.30
2023-03-10T11:45:41.907Z,2.30
2023-03-10T11:51:01.953Z,2.40
2023-03-10T11:56:09.975Z,2.50
2023-03-10T12:01:18.101Z,2.60
2023-03-10T12:06:26.904Z,2.60
2023-03-10T12:11:32.802Z,2.60
2023-03-10T12:16:41.574Z,2.60
2023-03-10T12:21:49.028Z,2.70
2023-03-10T12:27:03.606Z,2.70
2023-03-10T12:32:26.929Z,2.70
2023-03-10T12:37:32.088Z,2.70
2023-03-10T12:42:37.432Z,2.60
2023-03-10T12:47:48.278Z,2.60
2023-03-10T12:53:00.172Z,2.70
2023-03-10T12:58:20.354Z,2.80
2023-03-10T13:03:35.567Z,2.90
2023-03-10T13:08:59.384Z,3.00
2023-03-10T13:14:23.088Z,3.10
2023-03-10T13:19:31.245Z,3.10
2023-03-10T13:24:42.655Z,3.10
2023-03-10T13:30:15.578Z,3.00
2023-03-10T13:35:37.637Z,3.00
2023-03-10T13:40:50.345Z,3.00
2023-03-10T13:46:02.480Z,2.90
2023-03-10T13:51:33.456Z,2.80
2023-03-10T13:56:42.496Z,2.80
2023-03-10T14:01:51.191Z,2.80
2023-03-10T14:07:11.236Z,2.80
2023-03-10T14:12:21.846Z,2.80
2023-03-10T14:17:36.032Z,2.80
2023-03-10T14:22:43.935Z,2.80
2023-03-10T14:28:00.693Z,2.90
2023-03-10T14:33:09.061Z,3.00
2023-03-10T14:38:14.330Z,3.20
2023-03-10T14:43:28.166Z,3.20
2023-03-10T14:48:37.768Z,3.30
2023-03-10T14:53:43.039Z,3.30
2023-03-10T14:58:51.335Z,3.20
2023-03-10T15:03:56.589Z,3.10
2023-03-10T15:09:03.560Z,3.00
2023-03-10T15:14:20.674Z,2.90
2023-03-10T15:19:27.915Z,2.80
2023-03-10T15:24:34.321Z,2.70
2023-03-10T15:29:39.621Z,2.80
2023-03-10T15:34:45.657Z,2.80
2023-03-10T15:39:51.030Z,2.80
2023-03-10T15:44:56.237Z,2.80
2023-03-10T15:50:03.184Z,2.70
2023-03-10T15:55:10.186Z,2.70
2023-03-10T16:00:17.836Z,2.70
2023-03-10T16:05:23.691Z,2.70
2023-03-10T16:10:28.809Z,2.60
2023-03-10T16:15:39.501Z,2.60
2023-03-10T16:20:44.750Z,2.60
2023-03-10T16:26:04.812Z,2.60
2023-03-10T16:31:11.092Z,2.50
2023-03-10T16:36:19.296Z,2.50
2023-03-10T16:41:26.425Z,2.50
2023-03-10T16:46:33.074Z,2.50
2023-03-10T16:51:42.417Z,2.50
2023-03-10T16:56:50.060Z,2.50
2023-03-10T17:01:55.642Z,2.40
2023-03-10T17:07:02.252Z,2.40
2023-03-10T17:12:07.796Z,2.40
2023-03-10T17:17:14.178Z,2.30
2023-03-10T17:22:20.995Z,2.30
2023-03-10T17:27:26.813Z,2.20
2023-03-10T17:32:31.987Z,2.30
2023-03-10T17:37:38.901Z,2.30
2023-03-10T17:42:44.249Z,2.30
2023-03-10T17:47:52.463Z,2.30
2023-03-10T17:52:57.761Z,2.30
2023-03-10T17:58:02.909Z,2.10
2023-03-10T18:03:08.314Z,2.20
2023-03-10T18:08:15.019Z,2.20
2023-03-10T18:13:21.358Z,2.20
2023-03-10T18:18:27.142Z,2.20
2023-03-10T18:23:33.206Z,2.20
2023-03-10T18:28:43.178Z,2.10
2023-03-10T18:33:51.988Z,2.10
2023-03-10T18:38:58.788Z,2.10
2023-03-10T18:44:04.072Z,2.10
2023-03-10T18:49:09.291Z,2.10
2023-03-10T18:54:14.709Z,2.10
2023-03-10T18:59:19.846Z,2.10
2023-03-10T19:04:25.426Z,2.10
2023-03-10T19:09:30.660Z,2.10
2023-03-10T19:14:36.758Z,2.10
2023-03-10T19:19:41.997Z,2.10
2023-03-10T19:24:47.238Z,2.00
2023-03-10T19:29:58.349Z,2.10
2023-03-10T19:35:05.430Z,2.00
2023-03-10T19:40:21.807Z,2.00
2023-03-10T19:45:29.012Z,2.00
2023-03-10T19:50:35.422Z,1.90
2023-03-10T19:55:41.292Z,2.00
2023-03-10T20:00:46.689Z,2.00
2023-03-10T20:05:52.748Z,2.00
2023-03-10T20:10:59.624Z,1.90
2023-03-10T20:16:05.108Z,1.90
2023-03-10T20:21:10.616Z,1.90
2023-03-10T20:26:16.884Z,1.90
2023-03-10T20:31:24.448Z,1.90
2023-03-10T20:36:29.790Z,1.90
2023-03-10T20:41:35.728Z,1.90
2023-03-10T20:46:42.524Z,1.90
2023-03-10T20:51:49.408Z,1.90
2023-03-10T20:56:54.601Z,1.80
2023-03-10T21:01:59.897Z,1.90
2023-03-10T21:07:05.117Z,1.90
2023-03-10T21:12:12.544Z,1.80
2023-03-10T21:17:17.740Z,1.80
2023-03-10T21:22:23.659Z,1.80
2023-03-10T21:27:28.986Z,1.80
2023-03-10T21:32:34.313Z,1.80
2023-03-10T21:37:42.229Z,1.80
2023-03-10T21:42:49.692Z,1.80
2023-03-10T21:47:54.973Z,1.80
2023-03-10T21:53:00.244Z,1.80
2023-03-10T21:58:06.364Z,1.80
2023-03-10T22:03:11.662Z,1.80
2023-03-10T22:08:16.778Z,1.80
2023-03-10T22:13:22.008Z,1.80
2023-03-10T22:18:27.657Z,1.70
2023-03-10T22:23:32.889Z,1.70
2023-03-10T22:28:38.350Z,1.70
2023-03-10T22:33:43.574Z,1.70
2023-03-10T22:38:48.853Z,1.70
2023-03-10T22:43:56.246Z,1.60
2023-03-10T22:49:01.468Z,1.60
2023-03-10T22:54:07.900Z,1.70
2023-03-10T22:59:13.229Z,1.70
2023-03-10T23:04:18.487Z,1.70
2023-03-10T23:09:24.345Z,1.70
2023-03-10T23:14:29.674Z,1.60
2023-03-10T23:19:35.845Z,1.70
2023-03-10T23:24:41.142Z,1.70
2023-03-10T23:29:46.738Z,1.70
2023-03-10T23:34:52.400Z,1.60
2023-03-10T23:39:57.756Z,1.70
2023-03-10T23:45:06.071Z,1.70
2023-03-10T23:50:14.334Z,1.70
2023-03-10T23:55:25.194Z,1.60
